Time;durP1;ratioP1;P1;durP2;ratioP2;P2;SDS_P1;SDS_P2;PMS_P1;PMS_P2;Temp;Humidity;BMP_temperature;BMP_pressure;BME280_temperature;BME280_humidity;BME280_pressure;Samples;Min_cycle;Max_cycle;Signal;HPM_P1;HPM_P2
2021/09/25 00:00:05;;;;;;;14.50;4.30;;;;;;;10.12;81.84;98580.97;116760;1198;138312;-60
2021/09/25 00:02:33;;;;;;;7.40;3.40;;;;;;;10.11;81.92;98583.96;116850;1198;23603;-60
2021/09/25 00:05:03;;;;;;;5.30;1.20;;;;;;;10.11;81.81;98589.35;116805;1198;139180;-61
2021/09/25 00:07:31;;;;;;;4.20;1.80;;;;;;;10.12;81.95;98594.69;116857;1198;22257;-61
2021/09/25 00:09:59;;;;;;;7.90;2.40;;;;;;;10.11;81.90;98602.75;116778;1199;22270;-61
2021/09/25 00:12:27;;;;;;;4.30;1.70;;;;;;;10.09;82.04;98604.25;116738;1198;137538;-61
2021/09/25 00:14:55;;;;;;;7.50;2.00;;;;;;;10.07;82.14;98603.38;116629;1199;22969;-60
2021/09/25 00:17:23;;;;;;;4.00;1.00;;;;;;;10.08;82.01;98607.52;116807;1198;138038;-60
2021/09/25 00:19:51;;;;;;;4.40;1.70;;;;;;;10.04;81.90;98601.74;116791;1199;22427;-60
2021/09/25 00:22:19;;;;;;;4.20;1.40;;;;;;;10.05;81.90;98598.92;116579;1199;138205;-60
2021/09/25 00:24:46;;;;;;;4.90;1.80;;;;;;;10.05;81.78;98598.98;116565;1199;22783;-60
2021/09/25 00:27:14;;;;;;;6.90;1.60;;;;;;;10.04;81.83;98599.90;113123;1198;26270;-60
2021/09/25 00:29:42;;;;;;;4.60;1.70;;;;;;;10.04;81.80;98597.73;112392;1194;138138;-62
2021/09/25 00:32:10;;;;;;;2.40;1.20;;;;;;;10.04;81.61;98600.06;112573;1192;25148;-62
2021/09/25 00:34:38;;;;;;;1.60;1.10;;;;;;;10.04;81.71;98607.46;112482;1198;138390;-60
2021/09/25 00:37:06;;;;;;;7.80;1.10;;;;;;;10.03;81.50;98608.34;112526;1192;24230;-60
2021/09/25 00:39:34;;;;;;;5.30;1.40;;;;;;;10.03;81.58;98611.00;116735;1197;23281;-60
2021/09/25 00:42:03;;;;;;;5.70;1.60;;;;;;;10.02;81.41;98610.46;116713;1198;138083;-60
2021/09/25 00:44:31;;;;;;;2.90;1.40;;;;;;;10.02;81.50;98614.92;116896;1198;23212;-61
2021/09/25 00:46:59;;;;;;;2.80;1.60;;;;;;;10.02;81.37;98612.59;116783;1198;137915;-61
2021/09/25 00:49:27;;;;;;;7.70;1.50;;;;;;;10.02;81.45;98616.77;116774;1198;22400;-61
2021/09/25 00:51:55;;;;;;;5.70;1.60;;;;;;;10.02;81.34;98617.16;116917;1198;22538;-61
2021/09/25 00:54:23;;;;;;;6.70;1.60;;;;;;;10.00;81.20;98624.39;116736;1198;138030;-60
2021/09/25 00:56:51;;;;;;;3.40;0.80;;;;;;;9.99;81.10;98624.40;116883;1198;22247;-61
2021/09/25 00:59:20;;;;;;;2.20;0.90;;;;;;;9.99;81.31;98631.47;116626;1198;138475;-61
2021/09/25 01:01:48;;;;;;;2.50;1.20;;;;;;;9.99;81.35;98634.84;116660;1199;22395;-61
2021/09/25 01:04:17;;;;;;;2.90;1.00;;;;;;;10.01;81.16;98637.40;116692;1199;137624;-60
2021/09/25 01:06:45;;;;;;;3.80;1.20;;;;;;;10.02;81.08;98639.42;116674;1199;22983;-60
2021/09/25 01:09:14;;;;;;;3.20;1.10;;;;;;;10.02;81.17;98639.63;116857;1198;22376;-60
2021/09/25 01:11:42;;;;;;;4.80;1.80;;;;;;;10.04;81.20;98640.23;116784;1198;139031;-61
2021/09/25 01:14:10;;;;;;;4.20;1.20;;;;;;;10.06;81.17;98646.49;116819;1198;22960;-60
2021/09/25 01:16:38;;;;;;;2.60;1.00;;;;;;;10.06;81.16;98643.50;116598;1199;138705;-60
2021/09/25 01:19:06;;;;;;;6.10;2.00;;;;;;;10.09;81.11;98653.08;116880;1198;23540;-60
2021/09/25 01:21:34;;;;;;;1.40;0.90;;;;;;;10.09;80.83;98649.70;116930;1197;22961;-60
2021/09/25 01:24:02;;;;;;;3.80;1.10;;;;;;;10.06;80.92;98638.11;116727;1198;138181;-60
2021/09/25 01:26:30;;;;;;;2.90;0.90;;;;;;;10.09;81.00;98640.77;114403;1198;22476;-59
2021/09/25 01:28:58;;;;;;;8.00;1.60;;;;;;;10.09;80.90;98642.40;116519;1198;138002;-60
2021/09/25 01:31:27;;;;;;;4.80;1.30;;;;;;;10.10;80.93;98641.64;116881;1198;24393;-60
2021/09/25 01:33:55;;;;;;;4.60;1.10;;;;;;;10.09;80.88;98644.64;116866;1195;22294;-60
2021/09/25 01:36:23;;;;;;;4.70;1.00;;;;;;;10.09;80.96;98642.73;116744;1198;140390;-61
2021/09/25 01:38:51;;;;;;;8.20;2.30;;;;;;;10.11;80.98;98652.83;116881;1198;23167;-61
2021/09/25 01:41:19;;;;;;;2.90;1.00;;;;;;;10.12;80.80;98650.92;116719;1198;139938;-61
2021/09/25 01:43:47;;;;;;;2.20;1.00;;;;;;;10.14;80.96;98653.05;116814;1199;22466;-60
2021/09/25 01:46:18;;;;;;;5.90;0.90;;;;;;;10.14;80.83;98656.96;116756;1198;138007;-59
2021/09/25 01:48:46;;;;;;;4.00;1.20;;;;;;;10.15;80.81;98655.71;116826;1198;22449;-61
2021/09/25 01:51:14;;;;;;;2.10;0.80;;;;;;;10.16;80.65;98658.55;116897;1198;22405;-61
2021/09/25 01:53:42;;;;;;;1.70;1.20;;;;;;;10.17;80.80;98661.20;116601;1199;137808;-61
2021/09/25 01:56:12;;;;;;;2.80;1.20;;;;;;;10.16;80.50;98665.23;116927;1198;22400;-61
2021/09/25 01:58:40;;;;;;;4.30;1.50;;;;;;;10.18;80.56;98674.67;116717;1198;139125;-61
2021/09/25 02:01:09;;;;;;;3.40;0.90;;;;;;;10.19;80.73;98678.94;116733;1199;22326;-61
2021/09/25 02:03:37;;;;;;;5.20;1.40;;;;;;;10.20;80.58;98690.80;116869;1198;23171;-61
2021/09/25 02:06:06;;;;;;;5.50;1.00;;;;;;;10.19;80.73;98690.58;116716;1198;137674;-61
2021/09/25 02:08:35;;;;;;;1.50;1.10;;;;;;;10.20;80.43;98698.48;116820;1198;22358;-61
2021/09/25 02:11:03;;;;;;;2.30;1.10;;;;;;;10.18;80.25;98703.53;116681;1198;139391;-61
2021/09/25 02:13:32;;;;;;;3.70;1.10;;;;;;;10.17;80.36;98706.12;116683;1200;22358;-61
2021/09/25 02:16:00;;;;;;;4.20;0.90;;;;;;;10.17;80.44;98714.17;116699;1200;22273;-61
2021/09/25 02:18:28;;;;;;;2.10;0.90;;;;;;;10.15;80.22;98717.66;116532;1200;137461;-61
2021/09/25 02:20:56;;;;;;;2.60;0.80;;;;;;;10.14;80.36;98720.55;116707;1200;23237;-61
2021/09/25 02:23:24;;;;;;;2.30;1.00;;;;;;;10.13;80.40;98718.70;116578;1200;137808;-61
2021/09/25 02:25:52;;;;;;;4.30;1.00;;;;;;;10.12;80.43;98725.45;116706;1199;22312;-61
2021/09/25 02:28:21;;;;;;;6.30;1.60;;;;;;;10.12;80.49;98727.73;116503;1200;138277;-61
2021/09/25 02:30:49;;;;;;;7.40;1.20;;;;;;;10.11;80.43;98731.16;116699;1200;23120;-61
2021/09/25 02:33:17;;;;;;;4.20;1.00;;;;;;;10.09;80.40;98736.58;116600;1200;23277;-61
2021/09/25 02:35:45;;;;;;;2.30;1.00;;;;;;;10.10;80.57;98741.58;116515;1186;137924;-60
2021/09/25 02:38:13;;;;;;;1.10;0.90;;;;;;;10.09;80.48;98742.29;116725;1199;22260;-61
2021/09/25 02:40:41;;;;;;;2.20;1.30;;;;;;;10.08;80.54;98749.04;116523;1200;138955;-61
2021/09/25 02:43:10;;;;;;;4.30;1.00;;;;;;;10.06;80.59;98752.90;116676;1200;22525;-62
2021/09/25 02:45:38;;;;;;;3.10;1.20;;;;;;;10.06;80.56;98752.69;116724;1200;22301;-61
2021/09/25 02:48:05;;;;;;;1.70;1.10;;;;;;;10.06;80.70;98757.25;116593;1200;142686;-61
2021/09/25 02:50:33;;;;;;;5.50;1.30;;;;;;;10.07;80.71;98758.46;116694;1200;22531;-61
2021/09/25 02:53:01;;;;;;;2.70;0.90;;;;;;;10.06;80.68;98759.55;116571;1200;138532;-61
2021/09/25 02:55:29;;;;;;;5.10;0.90;;;;;;;10.06;80.88;98767.16;116693;1200;22336;-61
2021/09/25 02:57:58;;;;;;;5.50;1.40;;;;;;;10.05;80.75;98770.11;116702;1200;23448;-61
2021/09/25 03:00:25;;;;;;;6.90;1.10;;;;;;;10.03;80.84;98777.50;116568;1200;137816;-61
2021/09/25 03:02:53;;;;;;;5.70;1.60;;;;;;;10.02;80.94;98777.23;116568;1200;22581;-61
2021/09/25 03:05:22;;;;;;;6.30;1.50;;;;;;;10.01;80.84;98778.70;116550;1199;141798;-61
2021/09/25 03:07:50;;;;;;;3.10;1.30;;;;;;;9.99;81.05;98783.09;116713;1200;22362;-61
2021/09/25 03:10:19;;;;;;;5.40;1.40;;;;;;;9.98;81.23;98791.31;116568;1200;137807;-61
2021/09/25 03:12:47;;;;;;;3.60;1.60;;;;;;;9.96;81.30;98796.01;116746;1199;23233;-61
2021/09/25 03:15:15;;;;;;;3.20;0.90;;;;;;;9.92;81.34;98800.91;116907;1198;22325;-61
2021/09/25 03:17:43;;;;;;;6.00;1.10;;;;;;;9.92;81.45;98805.80;116728;1198;138328;-61
2021/09/25 03:20:12;;;;;;;2.50;1.10;;;;;;;9.91;81.26;98806.23;116691;1199;22209;-61
2021/09/25 03:22:40;;;;;;;4.90;1.30;;;;;;;9.89;81.37;98803.51;116730;1198;138017;-61
2021/09/25 03:25:09;;;;;;;3.60;1.20;;;;;;;9.89;81.60;98806.95;116837;1198;22358;-59
2021/09/25 03:27:38;;;;;;;2.10;1.30;;;;;;;9.90;81.51;98814.84;116921;1198;22333;-61
2021/09/25 03:30:07;;;;;;;5.40;1.30;;;;;;;9.90;81.54;98820.39;116674;1197;137759;-61
2021/09/25 03:32:35;;;;;;;4.90;2.20;;;;;;;9.89;81.27;98825.23;116887;1198;22371;-61
2021/09/25 03:35:03;;;;;;;5.90;2.00;;;;;;;9.88;81.24;98833.65;116767;1198;137828;-61
2021/09/25 03:37:32;;;;;;;7.20;1.20;;;;;;;9.87;81.20;98837.30;116858;1198;22539;-61
2021/09/25 03:40:00;;;;;;;3.70;1.20;;;;;;;9.86;81.36;98838.33;116646;1199;22301;-60
2021/09/25 03:42:28;;;;;;;7.20;1.30;;;;;;;9.87;81.35;98839.15;116748;1198;137553;-61
2021/09/25 03:44:56;;;;;;;4.70;1.40;;;;;;;9.88;81.33;98844.27;116926;1198;23117;-61
2021/09/25 03:47:24;;;;;;;3.80;1.40;;;;;;;9.88;81.28;98852.92;116581;1199;138637;-61
2021/09/25 03:49:52;;;;;;;3.50;1.50;;;;;;;9.87;81.36;98857.65;116909;1198;22329;-62
2021/09/25 03:52:20;;;;;;;4.70;2.00;;;;;;;9.88;81.23;98857.55;116776;1198;138602;-61
2021/09/25 03:54:48;;;;;;;4.60;1.90;;;;;;;9.89;81.33;98857.94;116880;1198;22351;-61
2021/09/25 03:57:16;;;;;;;5.10;1.90;;;;;;;9.91;81.25;98862.29;116873;1197;23121;-61
2021/09/25 03:59:44;;;;;;;2.90;1.20;;;;;;;9.91;80.93;98861.20;116695;1198;138438;-61
2021/09/25 04:02:12;;;;;;;8.40;1.50;;;;;;;9.90;81.17;98861.91;116753;1198;23141;-61
2021/09/25 04:04:40;;;;;;;4.50;1.30;;;;;;;9.90;81.11;98863.70;116758;1198;137726;-61
2021/09/25 04:07:08;;;;;;;4.30;1.40;;;;;;;9.90;80.72;98871.98;116713;1199;23131;-61
2021/09/25 04:09:36;;;;;;;4.30;1.50;;;;;;;9.91;80.89;98876.12;116889;1198;22321;-61
2021/09/25 04:12:04;;;;;;;2.50;1.20;;;;;;;9.91;80.87;98881.45;116758;1198;138340;-62
2021/09/25 04:14:32;;;;;;;5.30;1.30;;;;;;;9.94;80.84;98887.23;116915;1198;22352;-61
2021/09/25 04:17:00;;;;;;;7.30;1.30;;;;;;;9.96;80.95;98893.90;116759;1198;137918;-61
2021/09/25 04:19:28;;;;;;;4.50;1.80;;;;;;;9.97;80.96;98898.58;116721;1199;22930;-62
2021/09/25 04:21:56;;;;;;;2.80;1.20;;;;;;;9.99;80.90;98895.38;116880;1198;22339;-62
2021/09/25 04:24:24;;;;;;;3.70;1.00;;;;;;;9.99;80.72;98897.18;116685;1198;137518;-61
2021/09/25 04:26:52;;;;;;;3.20;1.00;;;;;;;9.99;80.75;98894.90;113769;1198;22701;-61
2021/09/25 04:29:21;;;;;;;3.10;1.80;;;;;;;9.99;80.93;98889.89;116676;1198;137630;-61
2021/09/25 04:31:49;;;;;;;8.90;1.50;;;;;;;10.00;80.91;98895.50;116906;1198;23584;-61
2021/09/25 04:34:17;;;;;;;6.70;1.40;;;;;;;10.01;80.89;98903.51;116729;1198;139562;-61
2021/09/25 04:36:45;;;;;;;2.60;1.50;;;;;;;10.00;80.73;98904.42;116910;1197;22362;-61
2021/09/25 04:39:13;;;;;;;3.30;1.80;;;;;;;9.98;80.65;98907.58;116939;1198;23174;-61
2021/09/25 04:41:41;;;;;;;5.00;1.50;;;;;;;9.97;80.82;98907.30;116760;1198;137877;-61
2021/09/25 04:44:14;;;;;;;4.50;1.00;;;;;;;9.98;80.78;98913.02;116880;1198;22773;-61
2021/09/25 04:46:43;;;;;;;5.50;1.20;;;;;;;9.97;80.84;98911.88;116744;1198;139466;-61
2021/09/25 04:49:11;;;;;;;3.40;1.60;;;;;;;9.99;80.75;98918.73;116869;1197;22480;-61
2021/09/25 04:51:39;;;;;;;8.60;1.50;;;;;;;10.00;80.70;98919.50;116870;1198;22256;-61
2021/09/25 04:54:07;;;;;;;4.20;1.90;;;;;;;10.00;80.75;98933.44;116560;1199;137759;-61
2021/09/25 04:56:35;;;;;;;2.40;1.10;;;;;;;10.00;80.56;98932.29;116878;1198;22329;-61
2021/09/25 04:59:03;;;;;;;6.70;1.50;;;;;;;10.00;80.69;98936.59;116723;1198;138659;-61
2021/09/25 05:01:32;;;;;;;5.60;1.90;;;;;;;10.02;80.73;98944.66;116688;1199;22324;-61
2021/09/25 05:04:02;;;;;;;4.40;1.30;;;;;;;10.04;80.68;98951.64;116803;1198;22390;-62
2021/09/25 05:06:30;;;;;;;5.10;1.10;;;;;;;10.04;80.58;98958.27;116776;1198;138017;-58
2021/09/25 05:08:58;;;;;;;4.80;1.60;;;;;;;10.07;80.42;98964.17;116785;1199;22302;-57
2021/09/25 05:11:26;;;;;;;4.00;1.30;;;;;;;10.08;80.44;98975.44;116676;1184;137994;-58
2021/09/25 05:13:54;;;;;;;4.90;1.90;;;;;;;10.09;80.52;98978.77;116875;1198;23392;-58
2021/09/25 05:16:22;;;;;;;7.50;2.60;;;;;;;10.09;80.33;98988.84;116737;1198;137907;-58
2021/09/25 05:18:50;;;;;;;5.30;1.70;;;;;;;10.10;80.28;98991.83;116905;1198;23203;-58
2021/09/25 05:21:18;;;;;;;4.60;1.60;;;;;;;10.11;80.12;98993.17;116890;1198;22386;-58
2021/09/25 05:23:46;;;;;;;6.50;1.80;;;;;;;10.11;80.11;98993.66;116731;1198;138895;-58
2021/09/25 05:26:14;;;;;;;2.20;1.20;;;;;;;10.12;79.99;98995.02;116667;1199;22843;-58
2021/09/25 05:28:42;;;;;;;2.00;1.10;;;;;;;10.12;79.69;99000.04;116749;1198;137998;-58
2021/09/25 05:31:12;;;;;;;4.10;1.40;;;;;;;10.12;79.33;99001.61;116915;1197;22354;-58
2021/09/25 05:33:40;;;;;;;2.60;1.00;;;;;;;10.10;79.37;99006.73;116888;1198;22330;-58
2021/09/25 05:36:08;;;;;;;1.50;1.10;;;;;;;10.11;79.22;99011.68;116570;1199;138806;-61
2021/09/25 05:38:36;;;;;;;8.90;1.10;;;;;;;10.09;79.07;99012.52;116928;1197;23811;-61
2021/09/25 05:41:04;;;;;;;6.30;1.40;;;;;;;10.08;79.23;99017.58;116782;1198;138178;-61
2021/09/25 05:43:32;;;;;;;5.10;1.30;;;;;;;10.06;79.14;99018.05;116862;1198;24776;-61
2021/09/25 05:46:00;;;;;;;1.20;0.80;;;;;;;10.05;79.07;99022.63;116825;1198;22352;-61
2021/09/25 05:48:30;;;;;;;6.00;1.40;;;;;;;10.05;78.93;99023.54;116811;1198;141011;-62
2021/09/25 05:50:59;;;;;;;6.20;1.20;;;;;;;10.04;78.88;99022.89;116873;1198;22314;-62
2021/09/25 05:53:27;;;;;;;1.60;1.10;;;;;;;10.06;78.89;99031.17;116666;1198;138430;-62
2021/09/25 05:55:55;;;;;;;4.40;1.20;;;;;;;10.06;78.88;99035.31;116819;1198;22383;-62
2021/09/25 05:58:23;;;;;;;7.10;1.50;;;;;;;10.06;78.69;99041.13;116705;1198;137821;-62
2021/09/25 06:00:51;;;;;;;4.40;1.30;;;;;;;10.07;78.88;99043.70;116721;1199;22852;-61
2021/09/25 06:03:19;;;;;;;3.90;1.20;;;;;;;10.09;78.86;99047.85;116844;1198;23046;-61
2021/09/25 06:05:48;;;;;;;5.30;1.40;;;;;;;10.10;78.63;99051.92;115478;1199;138647;-61
2021/09/25 06:08:16;;;;;;;3.00;1.60;;;;;;;10.11;78.72;99055.89;112602;1198;22433;-61
2021/09/25 06:10:44;;;;;;;4.60;1.40;;;;;;;10.11;78.46;99059.48;116492;1199;138333;-62
2021/09/25 06:13:12;;;;;;;4.10;1.50;;;;;;;10.10;78.26;99065.75;116930;1198;22451;-62
2021/09/25 06:15:40;;;;;;;5.50;1.60;;;;;;;10.08;78.33;99068.10;116669;1199;22243;-62
2021/09/25 06:18:08;;;;;;;4.10;1.70;;;;;;;10.08;78.49;99070.59;116826;1197;137614;-62
2021/09/25 06:20:36;;;;;;;2.80;1.20;;;;;;;10.08;78.57;99074.95;116895;1198;22397;-62
2021/09/25 06:23:04;;;;;;;1.40;1.20;;;;;;;10.08;78.63;99071.04;116563;1199;141143;-62
2021/09/25 06:25:33;;;;;;;3.30;1.10;;;;;;;10.08;78.37;99068.52;116888;1198;23302;-62
2021/09/25 06:28:02;;;;;;;3.80;1.70;;;;;;;10.11;78.46;99071.19;116836;1197;22312;-62
2021/09/25 06:30:30;;;;;;;2.40;1.30;;;;;;;10.14;78.66;99072.79;116745;1198;137792;-63
2021/09/25 06:32:59;;;;;;;3.70;1.10;;;;;;;10.17;78.50;99075.14;116888;1198;22147;-61
2021/09/25 06:35:28;;;;;;;2.20;1.10;;;;;;;10.20;78.51;99075.35;116160;1198;139318;-62
2021/09/25 06:37:56;;;;;;;4.60;1.70;;;;;;;10.24;78.38;99079.34;116680;1199;23078;-60
2021/09/25 06:40:25;;;;;;;2.00;1.20;;;;;;;10.28;78.29;99076.41;116863;1192;25182;-62
2021/09/25 06:43:12;;;;;;;5.80;2.00;;;;;;;10.34;78.13;99077.48;116873;1198;22404;-61
2021/09/25 06:45:58;;;;;;;5.20;1.20;;;;;;;10.39;77.85;99088.21;116721;1198;22175;-62
2021/09/25 06:48:49;;;;;;;3.60;1.30;;;;;;;10.46;77.89;99090.70;116902;1198;23229;-62
2021/09/25 06:51:37;;;;;;;4.20;1.30;;;;;;;10.55;77.74;99100.69;116875;1198;22287;-62
2021/09/25 06:54:05;;;;;;;3.50;1.20;;;;;;;10.64;77.85;99101.04;116353;1199;138687;-62
2021/09/25 06:56:34;;;;;;;1.80;1.10;;;;;;;10.75;77.74;99108.31;116724;1199;22361;-62
2021/09/25 06:59:03;;;;;;;2.80;1.30;;;;;;;10.85;77.22;99111.92;116797;1198;139502;-62
2021/09/25 07:01:32;;;;;;;3.10;1.40;;;;;;;10.95;77.02;99120.94;116972;1198;23385;-62
2021/09/25 07:04:01;;;;;;;4.20;1.70;;;;;;;11.05;77.21;99125.76;117009;1198;22312;-62
2021/09/25 07:06:29;;;;;;;5.00;1.70;;;;;;;11.13;76.67;99123.90;116802;1198;138580;-62
2021/09/25 07:09:05;;;;;;;3.90;1.30;;;;;;;11.20;76.16;99124.04;116994;1199;22227;-62
2021/09/25 07:11:33;;;;;;;3.90;1.50;;;;;;;11.23;76.02;99121.36;116875;1198;138285;-62
2021/09/25 07:14:05;;;;;;;5.60;2.00;;;;;;;11.25;75.70;99119.71;116833;1199;22337;-62
2021/09/25 07:16:35;;;;;;;5.60;1.50;;;;;;;11.28;75.76;99123.09;114462;1199;24786;-61
2021/09/25 07:19:04;;;;;;;6.50;2.70;;;;;;;11.31;75.83;99124.46;116823;1198;141118;-62
2021/09/25 07:21:32;;;;;;;3.00;1.30;;;;;;;11.33;75.43;99123.65;116945;1199;22378;-63
2021/09/25 07:24:01;;;;;;;14.60;2.60;;;;;;;11.34;75.56;99130.58;116830;1199;139391;-63
2021/09/25 07:26:30;;;;;;;5.50;1.60;;;;;;;11.37;75.62;99128.08;117046;1198;23113;-62
2021/09/25 07:28:58;;;;;;;4.30;1.90;;;;;;;11.40;75.67;99124.20;116862;1199;138273;-61
2021/09/25 07:31:26;;;;;;;5.70;1.60;;;;;;;11.44;75.70;99125.66;116968;1192;22233;-62
2021/09/25 07:33:54;;;;;;;5.20;1.50;;;;;;;11.49;75.69;99131.94;117007;1198;22325;-62
2021/09/25 07:36:24;;;;;;;5.10;1.70;;;;;;;11.53;75.42;99129.65;116872;1198;138223;-62
2021/09/25 07:38:52;;;;;;;6.50;2.20;;;;;;;11.61;75.50;99132.26;116951;1198;22296;-63
2021/09/25 07:41:23;;;;;;;8.20;2.10;;;;;;;11.70;75.67;99130.39;116881;1199;139449;-62
2021/09/25 07:43:51;;;;;;;7.00;1.80;;;;;;;11.79;75.37;99131.41;116939;1192;23061;-63
2021/09/25 07:46:19;;;;;;;7.00;2.20;;;;;;;11.86;74.95;99131.98;117001;1199;23317;-61
2021/09/25 07:48:47;;;;;;;3.60;1.60;;;;;;;11.90;74.32;99134.05;116837;1199;138871;-60
2021/09/25 07:51:15;;;;;;;8.10;2.00;;;;;;;11.90;74.19;99137.98;117007;1199;22342;-60
2021/09/25 07:53:44;;;;;;;6.70;1.70;;;;;;;11.93;74.28;99141.42;116882;1197;137636;-60
2021/09/25 07:56:12;;;;;;;12.70;2.40;;;;;;;11.97;74.31;99144.79;116989;1198;22204;-60
2021/09/25 07:58:39;;;;;;;5.50;2.50;;;;;;;12.03;74.22;99141.99;116995;1198;23359;-61
2021/09/25 08:01:07;;;;;;;5.10;1.90;;;;;;;12.09;74.53;99138.87;116723;1198;138173;-60
2021/09/25 08:03:36;;;;;;;10.30;4.90;;;;;;;12.17;74.46;99139.27;117022;1198;22141;-60
2021/09/25 08:06:05;;;;;;;6.50;3.40;;;;;;;12.25;74.16;99147.73;116702;1199;138843;-60
2021/09/25 08:08:33;;;;;;;9.20;3.20;;;;;;;12.33;73.91;99141.85;116909;1198;22406;-60
2021/09/25 08:11:01;;;;;;;7.70;2.80;;;;;;;12.40;73.54;99144.90;116748;1198;137926;-60
2021/09/25 08:13:30;;;;;;;4.90;2.10;;;;;;;12.45;73.35;99144.55;116858;1199;22280;-60
2021/09/25 08:15:58;;;;;;;9.20;2.60;;;;;;;12.50;73.33;99154.36;115364;1194;24079;-60
2021/09/25 08:18:27;;;;;;;13.10;2.60;;;;;;;12.55;73.08;99158.88;116756;1199;139455;-60
2021/09/25 08:20:55;;;;;;;6.30;1.50;;;;;;;12.59;72.34;99159.99;116959;1197;22304;-60
2021/09/25 08:23:23;;;;;;;6.40;2.20;;;;;;;12.61;72.35;99166.11;116682;1199;137828;-60
2021/09/25 08:25:53;;;;;;;2.60;1.30;;;;;;;12.63;71.99;99163.92;116919;1199;22304;-60
2021/09/25 08:29:23;;;;;;;7.10;2.00;;;;;;;12.69;71.75;99166.20;111076;1206;545279;-60
2021/09/25 08:31:51;;;;;;;4.10;1.80;;;;;;;12.70;71.75;99172.09;116062;1205;22363;-61
2021/09/25 08:34:19;;;;;;;5.80;2.10;;;;;;;12.74;71.69;99174.25;116036;1205;22776;-60
2021/09/25 08:36:47;;;;;;;6.10;2.30;;;;;;;12.78;71.66;99176.48;116000;1205;137107;-61
2021/09/25 08:39:17;;;;;;;7.90;2.90;;;;;;;12.81;71.83;99183.15;116023;1205;23013;-61
2021/09/25 08:41:45;;;;;;;11.40;3.10;;;;;;;12.87;71.90;99190.60;115966;1205;137447;-61
2021/09/25 08:44:13;;;;;;;9.10;1.80;;;;;;;12.92;71.62;99192.98;115989;1205;23035;-61
2021/09/25 08:46:41;;;;;;;5.70;2.40;;;;;;;12.95;71.35;99194.19;113471;1203;25418;-60
2021/09/25 08:49:10;;;;;;;5.40;2.20;;;;;;;12.98;70.97;99196.03;115810;1205;137576;-61
2021/09/25 08:51:38;;;;;;;6.60;2.20;;;;;;;13.00;70.95;99197.75;116075;1205;22871;-60
2021/09/25 08:54:06;;;;;;;5.50;2.20;;;;;;;13.04;70.82;99202.33;115854;1205;138482;-61
2021/09/25 08:56:34;;;;;;;3.90;1.60;;;;;;;13.08;70.64;99201.92;116604;1201;23130;-61
2021/09/25 08:59:02;;;;;;;7.40;1.80;;;;;;;13.10;70.37;99205.16;116445;1201;137465;-61
2021/09/25 09:01:31;;;;;;;3.80;1.50;;;;;;;13.14;70.33;99208.13;116613;1201;22248;-61
2021/09/25 09:03:59;;;;;;;4.70;1.60;;;;;;;13.18;70.19;99212.95;116621;1201;23260;-61
2021/09/25 09:06:36;;;;;;;5.30;1.50;;;;;;;13.21;70.00;99218.52;116451;1201;138826;-61
2021/09/25 09:09:06;;;;;;;4.80;1.80;;;;;;;13.25;69.56;99217.36;116596;1201;22329;-61
2021/09/25 09:11:40;;;;;;;6.40;1.70;;;;;;;13.27;69.57;99219.63;116497;1201;137561;-61
2021/09/25 09:14:08;;;;;;;3.70;1.60;;;;;;;13.26;69.43;99211.48;116576;1201;22343;-61
2021/09/25 09:16:36;;;;;;;3.80;1.40;;;;;;;13.28;69.26;99217.03;116431;1201;23073;-61
2021/09/25 09:19:04;;;;;;;4.30;1.30;;;;;;;13.27;69.06;99210.92;116386;1201;137439;-61
2021/09/25 09:21:32;;;;;;;4.60;1.40;;;;;;;13.27;69.38;99208.47;116576;1201;23150;-61
2021/09/25 09:24:07;;;;;;;7.50;1.60;;;;;;;13.28;69.33;99205.71;116530;1201;137411;-61
2021/09/25 09:26:37;;;;;;;4.30;1.50;;;;;;;13.28;69.48;99206.42;116618;1201;22403;-61
2021/09/25 09:29:06;;;;;;;6.30;1.90;;;;;;;13.29;69.49;99205.27;116480;1191;136867;-60
2021/09/25 09:31:35;;;;;;;4.60;1.60;;;;;;;13.30;69.33;99204.49;116591;1201;22424;-61
2021/09/25 09:34:04;;;;;;;6.50;2.00;;;;;;;13.29;69.54;99202.85;116556;1201;22519;-61
2021/09/25 09:36:33;;;;;;;6.30;2.90;;;;;;;13.28;69.66;99203.30;116504;1201;137482;-61
2021/09/25 09:39:10;;;;;;;8.20;2.30;;;;;;;13.28;69.46;99202.75;116598;1201;22265;-61
2021/09/25 09:41:43;;;;;;;5.60;2.50;;;;;;;13.27;69.16;99204.36;116478;1201;137671;-60
2021/09/25 09:44:21;;;;;;;7.80;2.70;;;;;;;13.23;69.44;99197.77;116622;1201;22336;-60
2021/09/25 09:46:50;;;;;;;11.20;2.70;;;;;;;13.23;69.92;99194.10;116543;1201;23387;-63
2021/09/25 09:49:26;;;;;;;7.70;2.50;;;;;;;13.22;69.82;99200.63;116507;1201;137318;-61
2021/09/25 09:51:55;;;;;;;6.90;2.40;;;;;;;13.22;70.14;99200.08;116549;1200;22331;-63
2021/09/25 09:54:30;;;;;;;7.00;2.00;;;;;;;13.23;70.16;99195.96;116545;1201;137573;-60
2021/09/25 09:57:12;;;;;;;4.00;2.20;;;;;;;13.23;70.61;99198.70;113454;1193;22505;-60
2021/09/25 09:59:40;;;;;;;5.80;2.10;;;;;;;13.21;71.11;99198.59;112203;1197;139477;-60
2021/09/25 10:02:09;;;;;;;5.50;2.20;;;;;;;13.20;71.52;99191.33;112429;1201;24050;-60
2021/09/25 10:04:38;;;;;;;7.60;2.30;;;;;;;13.22;71.74;99192.91;116508;1201;23010;-61
2021/09/25 10:07:06;;;;;;;7.50;2.60;;;;;;;13.22;71.74;99192.95;116478;1201;137421;-61
2021/09/25 10:09:35;;;;;;;10.10;2.80;;;;;;;13.24;71.79;99186.61;116638;1201;22316;-61
2021/09/25 10:12:05;;;;;;;5.50;2.20;;;;;;;13.27;71.43;99189.31;116460;1193;140399;-61
2021/09/25 10:14:35;;;;;;;12.90;2.50;;;;;;;13.29;71.09;99186.71;116724;1197;22219;-61
2021/09/25 10:17:05;;;;;;;6.60;2.60;;;;;;;13.31;70.99;99191.41;116491;1201;140009;-61
2021/09/25 10:19:37;;;;;;;6.20;2.20;;;;;;;13.36;71.16;99190.58;116646;1201;22809;-60
2021/09/25 10:22:22;;;;;;;6.40;2.20;;;;;;;13.43;71.04;99187.07;116594;1201;22180;-61
2021/09/25 10:24:57;;;;;;;6.00;1.80;;;;;;;13.53;70.80;99185.08;116474;1201;137510;-61
2021/09/25 10:27:27;;;;;;;4.80;1.70;;;;;;;13.65;70.84;99184.83;116531;1201;22378;-61
2021/09/25 10:30:00;;;;;;;5.40;1.40;;;;;;;13.76;69.88;99182.86;116405;1201;137822;-61
2021/09/25 10:32:35;;;;;;;5.40;1.60;;;;;;;13.85;69.47;99182.19;116555;1197;22247;-61
2021/09/25 10:35:13;;;;;;;4.60;1.30;;;;;;;13.95;68.76;99183.95;116435;1201;139431;-61
2021/09/25 10:37:45;;;;;;;6.90;1.60;;;;;;;14.03;68.35;99182.89;116627;1201;22457;-61
2021/09/25 10:40:35;;;;;;;5.00;1.90;;;;;;;14.11;68.18;99173.17;116663;1200;22199;-60
2021/09/25 10:43:27;;;;;;;5.40;1.80;;;;;;;14.16;67.26;99164.99;116495;1201;138659;-60
2021/09/25 10:45:59;;;;;;;5.00;1.80;;;;;;;14.22;66.70;99161.77;116590;1201;22431;-63
2021/09/25 10:48:29;;;;;;;4.70;1.50;;;;;;;14.27;66.69;99161.45;116517;1201;138320;-63
2021/09/25 10:51:12;;;;;;;3.30;1.40;;;;;;;14.31;66.88;99161.77;116537;1201;22318;-62
2021/09/25 10:53:41;;;;;;;3.10;1.50;;;;;;;14.39;66.84;99157.70;116450;1201;137951;-62
2021/09/25 10:56:18;;;;;;;4.30;1.50;;;;;;;14.48;66.44;99158.70;116601;1201;22267;-62
2021/09/25 10:58:52;;;;;;;9.50;2.10;;;;;;;14.57;65.36;99159.96;116497;1201;22448;-59
2021/09/25 11:01:33;;;;;;;5.70;1.90;;;;;;;14.63;65.50;99159.02;116489;1193;137571;-60
2021/09/25 11:04:07;;;;;;;6.00;1.90;;;;;;;14.68;65.37;99167.95;116599;1201;22436;-60
2021/09/25 11:06:51;;;;;;;5.30;1.50;;;;;;;14.70;64.81;99172.15;116437;1201;137486;-60
2021/09/25 11:09:41;;;;;;;10.80;2.70;;;;;;;14.70;64.47;99171.05;116606;1201;22316;-61
2021/09/25 11:12:14;;;;;;;6.80;2.60;;;;;;;14.70;64.91;99166.02;116414;1201;139310;-60
2021/09/25 11:14:45;;;;;;;5.00;1.90;;;;;;;14.70;64.93;99168.09;116627;1201;22324;-60
2021/09/25 11:17:19;;;;;;;6.10;2.70;;;;;;;14.69;64.49;99168.10;116493;1201;137798;-61
2021/09/25 11:19:51;;;;;;;6.30;2.40;;;;;;;14.66;64.37;99163.85;116652;1200;22388;-60
2021/09/25 11:22:45;;;;;;;8.90;2.60;;;;;;;14.65;64.74;99163.15;116642;1201;22321;-61
2021/09/25 11:25:17;;;;;;;7.30;2.30;;;;;;;14.66;64.72;99173.56;116338;1196;137352;-61
2021/09/25 11:27:49;;;;;;;5.70;2.60;;;;;;;14.66;64.33;99173.84;112279;1201;25024;-64
2021/09/25 11:30:21;;;;;;;6.50;2.00;;;;;;;14.65;64.55;99176.15;116481;1201;137752;-62
2021/09/25 11:32:50;;;;;;;7.40;2.80;;;;;;;14.66;64.71;99186.52;116584;1201;22432;-62